sensor_id;sensor_type;location;lat;lon;timestamp;temperature;humidity
22364;DHT22;11349;53.412;-1.328;2022-07-18T00:01:52;25.50;1.00
22364;DHT22;11349;53.412;-1.328;2022-07-18T00:04:18;25.40;1.00
22364;DHT22;11349;53.412;-1.328;2022-07-18T00:06:44;25.40;1.00
22364;DHT22;11349;53.412;-1.328;2022-07-18T00:09:09;25.50;76.20
22364;DHT22;11349;53.412;-1.328;2022-07-18T00:11:35;25.50;53.10
22364;DHT22;11349;53.412;-1.328;2022-07-18T00:14:01;25.50;99.90
22364;DHT22;11349;53.412;-1.328;2022-07-18T00:16:26;25.50;99.90
22364;DHT22;11349;53.412;-1.328;2022-07-18T00:18:52;25.50;99.90
22364;DHT22;11349;53.412;-1.328;2022-07-18T00:21:18;25.50;99.90
22364;DHT22;11349;53.412;-1.328;2022-07-18T00:23:44;25.50;99.90
22364;DHT22;11349;53.412;-1.328;2022-07-18T00:26:09;25.50;99.90
22364;DHT22;11349;53.412;-1.328;2022-07-18T00:28:35;25.50;99.90
22364;DHT22;11349;53.412;-1.328;2022-07-18T00:31:01;25.40;99.90
22364;DHT22;11349;53.412;-1.328;2022-07-18T00:33:26;25.40;99.90
22364;DHT22;11349;53.412;-1.328;2022-07-18T00:35:52;25.40;99.90
22364;DHT22;11349;53.412;-1.328;2022-07-18T00:38:18;25.30;1.00
22364;DHT22;11349;53.412;-1.328;2022-07-18T00:40:44;25.30;27.00
22364;DHT22;11349;53.412;-1.328;2022-07-18T00:43:13;25.30;1.00
22364;DHT22;11349;53.412;-1.328;2022-07-18T00:45:39;25.10;1.00
22364;DHT22;11349;53.412;-1.328;2022-07-18T00:48:09;25.10;1.00
22364;DHT22;11349;53.412;-1.328;2022-07-18T00:50:34;25.00;37.30
22364;DHT22;11349;53.412;-1.328;2022-07-18T00:53:00;25.10;1.00
22364;DHT22;11349;53.412;-1.328;2022-07-18T00:55:26;25.00;1.00
22364;DHT22;11349;53.412;-1.328;2022-07-18T00:57:53;24.90;1.00
22364;DHT22;11349;53.412;-1.328;2022-07-18T01:00:19;24.80;1.00
22364;DHT22;11349;53.412;-1.328;2022-07-18T01:03:03;24.40;71.40
22364;DHT22;11349;53.412;-1.328;2022-07-18T01:05:29;24.40;99.90
22364;DHT22;11349;53.412;-1.328;2022-07-18T01:07:55;24.10;99.90
22364;DHT22;11349;53.412;-1.328;2022-07-18T01:10:21;24.10;99.90
22364;DHT22;11349;53.412;-1.328;2022-07-18T01:12:46;24.20;99.90
22364;DHT22;11349;53.412;-1.328;2022-07-18T01:15:12;24.20;99.90
22364;DHT22;11349;53.412;-1.328;2022-07-18T01:17:38;24.10;99.90
22364;DHT22;11349;53.412;-1.328;2022-07-18T01:20:05;24.20;99.90
22364;DHT22;11349;53.412;-1.328;2022-07-18T01:22:32;24.30;88.70
22364;DHT22;11349;53.412;-1.328;2022-07-18T01:24:58;24.40;48.90
22364;DHT22;11349;53.412;-1.328;2022-07-18T01:27:24;24.50;34.10
22364;DHT22;11349;53.412;-1.328;2022-07-18T01:29:51;24.40;43.80
22364;DHT22;11349;53.412;-1.328;2022-07-18T01:32:17;24.50;1.00
22364;DHT22;11349;53.412;-1.328;2022-07-18T01:34:45;24.30;64.10
22364;DHT22;11349;53.412;-1.328;2022-07-18T01:37:11;24.20;77.70
22364;DHT22;11349;53.412;-1.328;2022-07-18T01:39:37;24.30;99.90
22364;DHT22;11349;53.412;-1.328;2022-07-18T01:42:05;24.30;30.60
22364;DHT22;11349;53.412;-1.328;2022-07-18T01:44:31;24.40;40.00
22364;DHT22;11349;53.412;-1.328;2022-07-18T01:46:57;24.50;75.50
22364;DHT22;11349;53.412;-1.328;2022-07-18T01:49:24;24.60;99.90
22364;DHT22;11349;53.412;-1.328;2022-07-18T01:51:52;24.60;99.90
22364;DHT22;11349;53.412;-1.328;2022-07-18T01:54:21;24.50;98.60
22364;DHT22;11349;53.412;-1.328;2022-07-18T01:56:48;24.50;59.80
22364;DHT22;11349;53.412;-1.328;2022-07-18T01:59:14;24.50;99.90
22364;DHT22;11349;53.412;-1.328;2022-07-18T02:01:39;24.50;99.90
22364;DHT22;11349;53.412;-1.328;2022-07-18T02:04:05;24.40;99.90
22364;DHT22;11349;53.412;-1.328;2022-07-18T02:06:31;24.40;55.30
22364;DHT22;11349;53.412;-1.328;2022-07-18T02:08:56;24.40;99.90
22364;DHT22;11349;53.412;-1.328;2022-07-18T02:11:22;24.30;99.90
22364;DHT22;11349;53.412;-1.328;2022-07-18T02:13:49;23.90;99.90
22364;DHT22;11349;53.412;-1.328;2022-07-18T02:16:15;23.60;1.00
22364;DHT22;11349;53.412;-1.328;2022-07-18T02:18:41;23.50;1.00
22364;DHT22;11349;53.412;-1.328;2022-07-18T02:21:07;23.50;79.40
22364;DHT22;11349;53.412;-1.328;2022-07-18T02:23:33;23.30;99.90
22364;DHT22;11349;53.412;-1.328;2022-07-18T02:25:59;23.20;99.90
22364;DHT22;11349;53.412;-1.328;2022-07-18T02:28:25;23.10;99.90
22364;DHT22;11349;53.412;-1.328;2022-07-18T02:30:51;23.10;99.90
22364;DHT22;11349;53.412;-1.328;2022-07-18T02:33:17;23.00;99.90
22364;DHT22;11349;53.412;-1.328;2022-07-18T02:35:44;22.90;1.00
22364;DHT22;11349;53.412;-1.328;2022-07-18T02:38:10;23.00;99.90
22364;DHT22;11349;53.412;-1.328;2022-07-18T02:40:36;22.90;99.90
22364;DHT22;11349;53.412;-1.328;2022-07-18T02:43:02;23.10;77.80
22364;DHT22;11349;53.412;-1.328;2022-07-18T02:45:28;23.10;1.00
22364;DHT22;11349;53.412;-1.328;2022-07-18T02:47:53;23.00;1.00
22364;DHT22;11349;53.412;-1.328;2022-07-18T02:50:19;22.80;1.00
22364;DHT22;11349;53.412;-1.328;2022-07-18T02:52:45;23.10;99.90
22364;DHT22;11349;53.412;-1.328;2022-07-18T02:55:12;23.00;1.00
22364;DHT22;11349;53.412;-1.328;2022-07-18T02:57:38;22.70;1.00
22364;DHT22;11349;53.412;-1.328;2022-07-18T03:00:06;22.60;1.00
22364;DHT22;11349;53.412;-1.328;2022-07-18T03:02:32;22.50;1.00
22364;DHT22;11349;53.412;-1.328;2022-07-18T03:04:58;22.40;40.10
22364;DHT22;11349;53.412;-1.328;2022-07-18T03:07:23;22.30;83.70
22364;DHT22;11349;53.412;-1.328;2022-07-18T03:09:49;22.40;3.00
22364;DHT22;11349;53.412;-1.328;2022-07-18T03:12:16;22.70;1.00
22364;DHT22;11349;53.412;-1.328;2022-07-18T03:14:42;22.90;99.90
22364;DHT22;11349;53.412;-1.328;2022-07-18T03:17:08;23.20;99.90
22364;DHT22;11349;53.412;-1.328;2022-07-18T03:19:33;23.10;99.90
22364;DHT22;11349;53.412;-1.328;2022-07-18T03:22:00;23.10;99.90
22364;DHT22;11349;53.412;-1.328;2022-07-18T03:24:25;22.90;1.00
22364;DHT22;11349;53.412;-1.328;2022-07-18T03:26:51;22.70;51.70
22364;DHT22;11349;53.412;-1.328;2022-07-18T03:29:17;22.50;73.20
22364;DHT22;11349;53.412;-1.328;2022-07-18T03:31:43;22.60;99.90
22364;DHT22;11349;53.412;-1.328;2022-07-18T03:34:08;22.80;99.90
22364;DHT22;11349;53.412;-1.328;2022-07-18T03:36:34;22.90;2.70
22364;DHT22;11349;53.412;-1.328;2022-07-18T03:39:00;23.10;18.00
22364;DHT22;11349;53.412;-1.328;2022-07-18T03:41:26;23.20;1.00
22364;DHT22;11349;53.412;-1.328;2022-07-18T03:43:52;23.00;1.00
22364;DHT22;11349;53.412;-1.328;2022-07-18T03:46:18;23.10;1.00
22364;DHT22;11349;53.412;-1.328;2022-07-18T03:48:43;23.20;1.00
22364;DHT22;11349;53.412;-1.328;2022-07-18T03:51:09;23.10;99.90
22364;DHT22;11349;53.412;-1.328;2022-07-18T03:53:35;23.00;1.00
22364;DHT22;11349;53.412;-1.328;2022-07-18T03:56:00;22.90;99.90
22364;DHT22;11349;53.412;-1.328;2022-07-18T03:58:26;22.70;99.90
22364;DHT22;11349;53.412;-1.328;2022-07-18T04:00:52;22.40;99.90
22364;DHT22;11349;53.412;-1.328;2022-07-18T04:03:18;22.10;1.00
22364;DHT22;11349;53.412;-1.328;2022-07-18T04:05:44;21.80;99.90
22364;DHT22;11349;53.412;-1.328;2022-07-18T04:08:10;21.80;99.90
22364;DHT22;11349;53.412;-1.328;2022-07-18T04:10:36;22.20;99.90
22364;DHT22;11349;53.412;-1.328;2022-07-18T04:13:05;22.20;99.90
22364;DHT22;11349;53.412;-1.328;2022-07-18T04:15:32;22.30;1.00
22364;DHT22;11349;53.412;-1.328;2022-07-18T04:17:58;22.20;1.00
22364;DHT22;11349;53.412;-1.328;2022-07-18T04:20:23;22.10;31.70
22364;DHT22;11349;53.412;-1.328;2022-07-18T04:25:18;21.90;1.00
22364;DHT22;11349;53.412;-1.328;2022-07-18T04:27:44;22.20;71.90
22364;DHT22;11349;53.412;-1.328;2022-07-18T04:30:10;22.60;1.00
22364;DHT22;11349;53.412;-1.328;2022-07-18T04:32:37;22.60;99.90
22364;DHT22;11349;53.412;-1.328;2022-07-18T04:35:03;22.50;1.00
22364;DHT22;11349;53.412;-1.328;2022-07-18T04:37:30;22.60;1.00
22364;DHT22;11349;53.412;-1.328;2022-07-18T04:39:56;22.60;99.90
22364;DHT22;11349;53.412;-1.328;2022-07-18T04:42:22;22.70;1.00
22364;DHT22;11349;53.412;-1.328;2022-07-18T04:44:48;22.90;1.00
22364;DHT22;11349;53.412;-1.328;2022-07-18T04:47:13;22.90;99.90
22364;DHT22;11349;53.412;-1.328;2022-07-18T04:49:39;22.80;1.00
22364;DHT22;11349;53.412;-1.328;2022-07-18T04:52:05;22.40;99.90
22364;DHT22;11349;53.412;-1.328;2022-07-18T04:54:30;22.10;99.90
22364;DHT22;11349;53.412;-1.328;2022-07-18T04:56:56;22.00;99.90
22364;DHT22;11349;53.412;-1.328;2022-07-18T04:59:22;21.70;99.90
22364;DHT22;11349;53.412;-1.328;2022-07-18T05:01:47;21.70;99.90
22364;DHT22;11349;53.412;-1.328;2022-07-18T05:04:13;21.60;99.90
22364;DHT22;11349;53.412;-1.328;2022-07-18T05:06:39;21.60;99.90
22364;DHT22;11349;53.412;-1.328;2022-07-18T05:09:04;21.70;99.90
22364;DHT22;11349;53.412;-1.328;2022-07-18T05:11:30;21.80;99.90
22364;DHT22;11349;53.412;-1.328;2022-07-18T05:13:56;21.90;99.90
22364;DHT22;11349;53.412;-1.328;2022-07-18T05:16:21;21.80;99.90
22364;DHT22;11349;53.412;-1.328;2022-07-18T05:18:47;21.90;99.90
22364;DHT22;11349;53.412;-1.328;2022-07-18T05:21:13;22.10;99.90
22364;DHT22;11349;53.412;-1.328;2022-07-18T05:23:38;22.30;99.90
22364;DHT22;11349;53.412;-1.328;2022-07-18T05:26:04;22.40;99.90
22364;DHT22;11349;53.412;-1.328;2022-07-18T05:28:30;22.50;99.90
22364;DHT22;11349;53.412;-1.328;2022-07-18T05:30:56;22.50;99.90
22364;DHT22;11349;53.412;-1.328;2022-07-18T05:33:22;22.50;99.90
22364;DHT22;11349;53.412;-1.328;2022-07-18T05:35:47;22.60;99.90
22364;DHT22;11349;53.412;-1.328;2022-07-18T05:38:13;22.70;99.90
22364;DHT22;11349;53.412;-1.328;2022-07-18T05:40:39;22.80;99.90
22364;DHT22;11349;53.412;-1.328;2022-07-18T05:43:04;22.90;99.90
22364;DHT22;11349;53.412;-1.328;2022-07-18T05:45:30;22.90;99.90
22364;DHT22;11349;53.412;-1.328;2022-07-18T05:47:56;23.00;99.90
22364;DHT22;11349;53.412;-1.328;2022-07-18T05:50:23;23.10;99.90
22364;DHT22;11349;53.412;-1.328;2022-07-18T05:52:49;23.10;99.90
22364;DHT22;11349;53.412;-1.328;2022-07-18T05:55:15;23.10;99.90
22364;DHT22;11349;53.412;-1.328;2022-07-18T05:57:41;23.20;99.90
22364;DHT22;11349;53.412;-1.328;2022-07-18T06:00:08;23.20;99.90
22364;DHT22;11349;53.412;-1.328;2022-07-18T06:02:35;23.30;99.90
22364;DHT22;11349;53.412;-1.328;2022-07-18T06:05:02;23.30;99.90
22364;DHT22;11349;53.412;-1.328;2022-07-18T06:07:28;23.10;99.90
22364;DHT22;11349;53.412;-1.328;2022-07-18T06:09:53;23.10;99.90
22364;DHT22;11349;53.412;-1.328;2022-07-18T06:12:20;23.20;99.90
22364;DHT22;11349;53.412;-1.328;2022-07-18T06:14:46;23.10;99.90
22364;DHT22;11349;53.412;-1.328;2022-07-18T06:17:12;23.20;99.90
22364;DHT22;11349;53.412;-1.328;2022-07-18T06:19:38;23.10;99.90
22364;DHT22;11349;53.412;-1.328;2022-07-18T06:22:05;23.20;99.90
22364;DHT22;11349;53.412;-1.328;2022-07-18T06:24:31;23.20;99.90
22364;DHT22;11349;53.412;-1.328;2022-07-18T06:26:56;23.30;99.90
22364;DHT22;11349;53.412;-1.328;2022-07-18T06:29:22;23.40;99.90
22364;DHT22;11349;53.412;-1.328;2022-07-18T06:31:48;23.50;99.90
22364;DHT22;11349;53.412;-1.328;2022-07-18T06:34:14;23.70;99.90
22364;DHT22;11349;53.412;-1.328;2022-07-18T06:36:40;23.70;99.90
22364;DHT22;11349;53.412;-1.328;2022-07-18T06:39:06;23.60;99.90
22364;DHT22;11349;53.412;-1.328;2022-07-18T06:41:37;23.80;99.90
22364;DHT22;11349;53.412;-1.328;2022-07-18T06:44:04;23.80;99.90
22364;DHT22;11349;53.412;-1.328;2022-07-18T06:46:30;23.90;99.90
22364;DHT22;11349;53.412;-1.328;2022-07-18T06:48:55;24.20;99.90
22364;DHT22;11349;53.412;-1.328;2022-07-18T06:51:21;24.30;99.90
22364;DHT22;11349;53.412;-1.328;2022-07-18T06:53:47;24.40;99.90
22364;DHT22;11349;53.412;-1.328;2022-07-18T06:56:13;24.50;99.90
22364;DHT22;11349;53.412;-1.328;2022-07-18T06:58:39;24.60;99.90
22364;DHT22;11349;53.412;-1.328;2022-07-18T07:01:05;24.90;99.90
22364;DHT22;11349;53.412;-1.328;2022-07-18T07:03:32;24.90;99.90
22364;DHT22;11349;53.412;-1.328;2022-07-18T07:05:58;25.40;99.90
22364;DHT22;11349;53.412;-1.328;2022-07-18T07:08:24;25.40;99.90
22364;DHT22;11349;53.412;-1.328;2022-07-18T07:10:50;25.20;99.90
22364;DHT22;11349;53.412;-1.328;2022-07-18T07:13:16;25.20;99.90
22364;DHT22;11349;53.412;-1.328;2022-07-18T07:15:42;25.10;99.90
22364;DHT22;11349;53.412;-1.328;2022-07-18T07:18:08;25.10;99.90
22364;DHT22;11349;53.412;-1.328;2022-07-18T07:20:35;25.10;99.90
22364;DHT22;11349;53.412;-1.328;2022-07-18T07:23:00;25.20;99.90
22364;DHT22;11349;53.412;-1.328;2022-07-18T07:25:30;25.50;99.90
22364;DHT22;11349;53.412;-1.328;2022-07-18T07:27:56;26.10;99.90
22364;DHT22;11349;53.412;-1.328;2022-07-18T07:30:22;27.00;1.00
22364;DHT22;11349;53.412;-1.328;2022-07-18T07:32:48;27.10;15.90
22364;DHT22;11349;53.412;-1.328;2022-07-18T07:35:15;27.00;1.00
22364;DHT22;11349;53.412;-1.328;2022-07-18T07:37:44;27.30;69.60
22364;DHT22;11349;53.412;-1.328;2022-07-18T07:40:10;28.00;1.00
22364;DHT22;11349;53.412;-1.328;2022-07-18T07:42:37;27.90;1.00
22364;DHT22;11349;53.412;-1.328;2022-07-18T07:45:04;28.50;1.00
22364;DHT22;11349;53.412;-1.328;2022-07-18T07:47:30;28.50;8.30
22364;DHT22;11349;53.412;-1.328;2022-07-18T07:49:58;28.40;1.00
22364;DHT22;11349;53.412;-1.328;2022-07-18T07:52:24;28.30;4.80
22364;DHT22;11349;53.412;-1.328;2022-07-18T07:54:50;28.90;1.00
22364;DHT22;11349;53.412;-1.328;2022-07-18T07:57:17;29.00;1.00
22364;DHT22;11349;53.412;-1.328;2022-07-18T07:59:42;29.30;1.00
22364;DHT22;11349;53.412;-1.328;2022-07-18T08:02:08;30.40;1.00
22364;DHT22;11349;53.412;-1.328;2022-07-18T08:04:34;31.00;99.90
22364;DHT22;11349;53.412;-1.328;2022-07-18T08:07:03;31.30;99.90
22364;DHT22;11349;53.412;-1.328;2022-07-18T08:09:29;31.40;99.90
22364;DHT22;11349;53.412;-1.328;2022-07-18T08:11:55;31.60;1.00
22364;DHT22;11349;53.412;-1.328;2022-07-18T08:14:23;32.00;99.90
22364;DHT22;11349;53.412;-1.328;2022-07-18T08:16:49;32.40;99.90
22364;DHT22;11349;53.412;-1.328;2022-07-18T08:19:14;32.50;99.90
22364;DHT22;11349;53.412;-1.328;2022-07-18T08:21:41;33.30;99.90
22364;DHT22;11349;53.412;-1.328;2022-07-18T08:24:07;33.20;99.90
22364;DHT22;11349;53.412;-1.328;2022-07-18T08:26:33;32.20;1.00
22364;DHT22;11349;53.412;-1.328;2022-07-18T08:29:05;32.10;1.00
22364;DHT22;11349;53.412;-1.328;2022-07-18T08:31:31;33.20;99.90
22364;DHT22;11349;53.412;-1.328;2022-07-18T08:33:57;33.80;99.90
22364;DHT22;11349;53.412;-1.328;2022-07-18T08:36:22;33.50;99.90
22364;DHT22;11349;53.412;-1.328;2022-07-18T08:38:49;34.00;99.90
22364;DHT22;11349;53.412;-1.328;2022-07-18T08:41:16;34.60;99.90
22364;DHT22;11349;53.412;-1.328;2022-07-18T08:43:45;34.50;99.90
22364;DHT22;11349;53.412;-1.328;2022-07-18T08:46:12;34.20;99.90
22364;DHT22;11349;53.412;-1.328;2022-07-18T08:48:38;34.10;99.90
22364;DHT22;11349;53.412;-1.328;2022-07-18T08:51:08;34.40;99.90
22364;DHT22;11349;53.412;-1.328;2022-07-18T08:53:35;34.60;99.90
22364;DHT22;11349;53.412;-1.328;2022-07-18T08:56:04;34.60;99.90
22364;DHT22;11349;53.412;-1.328;2022-07-18T08:58:30;35.00;99.90
22364;DHT22;11349;53.412;-1.328;2022-07-18T09:00:55;35.00;99.90
22364;DHT22;11349;53.412;-1.328;2022-07-18T09:03:24;35.10;99.90
22364;DHT22;11349;53.412;-1.328;2022-07-18T09:06:22;36.00;99.90
22364;DHT22;11349;53.412;-1.328;2022-07-18T09:08:59;36.30;99.90
22364;DHT22;11349;53.412;-1.328;2022-07-18T09:11:25;36.70;99.90
22364;DHT22;11349;53.412;-1.328;2022-07-18T09:13:51;37.10;99.90
22364;DHT22;11349;53.412;-1.328;2022-07-18T09:16:17;36.80;99.90
22364;DHT22;11349;53.412;-1.328;2022-07-18T09:18:45;37.20;99.90
22364;DHT22;11349;53.412;-1.328;2022-07-18T09:21:22;37.60;99.90
22364;DHT22;11349;53.412;-1.328;2022-07-18T09:23:50;37.40;99.90
22364;DHT22;11349;53.412;-1.328;2022-07-18T09:29:01;37.20;99.90
22364;DHT22;11349;53.412;-1.328;2022-07-18T09:31:26;37.50;99.90
22364;DHT22;11349;53.412;-1.328;2022-07-18T09:33:57;36.70;99.90
22364;DHT22;11349;53.412;-1.328;2022-07-18T09:36:24;36.20;99.90
22364;DHT22;11349;53.412;-1.328;2022-07-18T09:38:50;36.40;99.90
22364;DHT22;11349;53.412;-1.328;2022-07-18T09:41:25;36.40;99.90
22364;DHT22;11349;53.412;-1.328;2022-07-18T09:43:52;36.60;99.90
22364;DHT22;11349;53.412;-1.328;2022-07-18T09:46:18;36.90;99.90
22364;DHT22;11349;53.412;-1.328;2022-07-18T09:48:46;36.40;99.90
22364;DHT22;11349;53.412;-1.328;2022-07-18T09:51:12;36.50;99.90
22364;DHT22;11349;53.412;-1.328;2022-07-18T09:53:42;36.70;99.90
22364;DHT22;11349;53.412;-1.328;2022-07-18T09:56:10;36.30;99.90
22364;DHT22;11349;53.412;-1.328;2022-07-18T09:58:42;35.80;99.90
22364;DHT22;11349;53.412;-1.328;2022-07-18T10:01:15;35.50;99.90
22364;DHT22;11349;53.412;-1.328;2022-07-18T10:03:41;34.70;99.90
22364;DHT22;11349;53.412;-1.328;2022-07-18T10:06:07;34.50;99.90
22364;DHT22;11349;53.412;-1.328;2022-07-18T10:08:34;34.50;99.90
22364;DHT22;11349;53.412;-1.328;2022-07-18T10:11:02;34.20;99.90
22364;DHT22;11349;53.412;-1.328;2022-07-18T10:13:30;34.20;99.90
22364;DHT22;11349;53.412;-1.328;2022-07-18T10:15:57;33.80;99.90
22364;DHT22;11349;53.412;-1.328;2022-07-18T10:18:26;33.40;99.90
22364;DHT22;11349;53.412;-1.328;2022-07-18T10:20:53;33.10;99.90
22364;DHT22;11349;53.412;-1.328;2022-07-18T10:23:22;33.70;99.90
22364;DHT22;11349;53.412;-1.328;2022-07-18T10:26:10;33.70;99.90
22364;DHT22;11349;53.412;-1.328;2022-07-18T10:29:14;33.30;99.90
22364;DHT22;11349;53.412;-1.328;2022-07-18T10:32:00;32.90;99.90
22364;DHT22;11349;53.412;-1.328;2022-07-18T10:34:35;32.20;99.90
22364;DHT22;11349;53.412;-1.328;2022-07-18T10:37:08;32.20;99.90
22364;DHT22;11349;53.412;-1.328;2022-07-18T10:39:43;32.20;99.90
22364;DHT22;11349;53.412;-1.328;2022-07-18T10:44:37;32.90;99.90
22364;DHT22;11349;53.412;-1.328;2022-07-18T10:47:14;32.60;99.90
22364;DHT22;11349;53.412;-1.328;2022-07-18T11:00:34;33.10;99.90
22364;DHT22;11349;53.412;-1.328;2022-07-18T11:13:32;32.50;99.90
22364;DHT22;11349;53.412;-1.328;2022-07-18T11:23:49;32.60;99.90
22364;DHT22;11349;53.412;-1.328;2022-07-18T11:26:20;32.50;99.90
22364;DHT22;11349;53.412;-1.328;2022-07-18T11:28:48;32.60;99.90
22364;DHT22;11349;53.412;-1.328;2022-07-18T11:31:14;32.70;99.90
22364;DHT22;11349;53.412;-1.328;2022-07-18T11:33:48;32.80;99.90
22364;DHT22;11349;53.412;-1.328;2022-07-18T11:36:16;32.50;99.90
22364;DHT22;11349;53.412;-1.328;2022-07-18T11:38:57;32.60;99.90
22364;DHT22;11349;53.412;-1.328;2022-07-18T11:41:24;32.50;99.90
22364;DHT22;11349;53.412;-1.328;2022-07-18T11:43:51;32.60;99.90
22364;DHT22;11349;53.412;-1.328;2022-07-18T11:46:19;32.40;99.90
22364;DHT22;11349;53.412;-1.328;2022-07-18T11:48:48;32.40;99.90
22364;DHT22;11349;53.412;-1.328;2022-07-18T11:51:18;32.60;99.90
22364;DHT22;11349;53.412;-1.328;2022-07-18T11:53:46;32.70;99.90
22364;DHT22;11349;53.412;-1.328;2022-07-18T11:56:13;32.70;99.90
22364;DHT22;11349;53.412;-1.328;2022-07-18T11:58:41;32.60;99.90
22364;DHT22;11349;53.412;-1.328;2022-07-18T12:01:07;32.70;99.90
22364;DHT22;11349;53.412;-1.328;2022-07-18T12:03:39;32.90;99.90
22364;DHT22;11349;53.412;-1.328;2022-07-18T12:06:17;32.90;99.90
22364;DHT22;11349;53.412;-1.328;2022-07-18T12:08:48;32.60;99.90
22364;DHT22;11349;53.412;-1.328;2022-07-18T12:16:48;32.30;99.90
22364;DHT22;11349;53.412;-1.328;2022-07-18T12:19:17;32.60;99.90
22364;DHT22;11349;53.412;-1.328;2022-07-18T12:21:47;32.30;99.90
22364;DHT22;11349;53.412;-1.328;2022-07-18T12:24:32;32.60;99.90
22364;DHT22;11349;53.412;-1.328;2022-07-18T12:30:15;32.90;99.90
22364;DHT22;11349;53.412;-1.328;2022-07-18T12:32:56;32.50;99.90
22364;DHT22;11349;53.412;-1.328;2022-07-18T12:35:32;32.50;99.90
22364;DHT22;11349;53.412;-1.328;2022-07-18T12:38:13;32.70;99.90
22364;DHT22;11349;53.412;-1.328;2022-07-18T12:43:35;32.60;99.90
22364;DHT22;11349;53.412;-1.328;2022-07-18T12:46:08;32.50;99.90
22364;DHT22;11349;53.412;-1.328;2022-07-18T12:48:35;33.00;99.90
22364;DHT22;11349;53.412;-1.328;2022-07-18T12:51:04;33.20;99.90
22364;DHT22;11349;53.412;-1.328;2022-07-18T12:53:33;33.20;99.90
22364;DHT22;11349;53.412;-1.328;2022-07-18T12:55:59;33.00;99.90
22364;DHT22;11349;53.412;-1.328;2022-07-18T12:58:25;33.30;99.90
22364;DHT22;11349;53.412;-1.328;2022-07-18T13:00:51;33.30;99.90
22364;DHT22;11349;53.412;-1.328;2022-07-18T13:03:17;32.80;99.90
22364;DHT22;11349;53.412;-1.328;2022-07-18T13:05:43;32.60;99.90
22364;DHT22;11349;53.412;-1.328;2022-07-18T13:08:09;32.60;99.90
22364;DHT22;11349;53.412;-1.328;2022-07-18T13:10:37;32.60;99.90
22364;DHT22;11349;53.412;-1.328;2022-07-18T13:13:05;32.10;99.90
22364;DHT22;11349;53.412;-1.328;2022-07-18T13:15:31;32.30;99.90
22364;DHT22;11349;53.412;-1.328;2022-07-18T13:17:57;32.20;99.90
22364;DHT22;11349;53.412;-1.328;2022-07-18T13:20:23;32.20;99.90
22364;DHT22;11349;53.412;-1.328;2022-07-18T13:22:50;32.40;99.90
22364;DHT22;11349;53.412;-1.328;2022-07-18T13:25:16;31.90;99.90
22364;DHT22;11349;53.412;-1.328;2022-07-18T13:27:42;32.40;99.90
22364;DHT22;11349;53.412;-1.328;2022-07-18T13:30:09;32.90;99.90
22364;DHT22;11349;53.412;-1.328;2022-07-18T13:32:35;33.10;99.90
22364;DHT22;11349;53.412;-1.328;2022-07-18T13:35:02;32.90;99.90
22364;DHT22;11349;53.412;-1.328;2022-07-18T13:37:29;32.50;99.90
22364;DHT22;11349;53.412;-1.328;2022-07-18T13:39:55;32.50;99.90
22364;DHT22;11349;53.412;-1.328;2022-07-18T13:42:21;32.30;99.90
22364;DHT22;11349;53.412;-1.328;2022-07-18T13:44:47;32.90;99.90
22364;DHT22;11349;53.412;-1.328;2022-07-18T13:47:14;32.30;99.90
22364;DHT22;11349;53.412;-1.328;2022-07-18T13:49:40;32.00;99.90
22364;DHT22;11349;53.412;-1.328;2022-07-18T13:52:06;32.00;99.90
22364;DHT22;11349;53.412;-1.328;2022-07-18T13:54:32;31.60;99.90
22364;DHT22;11349;53.412;-1.328;2022-07-18T13:56:57;31.60;99.90
22364;DHT22;11349;53.412;-1.328;2022-07-18T13:59:23;32.00;99.90
22364;DHT22;11349;53.412;-1.328;2022-07-18T14:01:50;31.80;99.90
22364;DHT22;11349;53.412;-1.328;2022-07-18T14:04:16;31.80;99.90
22364;DHT22;11349;53.412;-1.328;2022-07-18T14:06:47;31.70;99.90
22364;DHT22;11349;53.412;-1.328;2022-07-18T14:09:13;31.60;99.90
22364;DHT22;11349;53.412;-1.328;2022-07-18T14:11:40;32.50;99.90
22364;DHT22;11349;53.412;-1.328;2022-07-18T14:14:06;32.10;99.90
22364;DHT22;11349;53.412;-1.328;2022-07-18T14:16:32;31.80;99.90
22364;DHT22;11349;53.412;-1.328;2022-07-18T14:18:58;31.60;99.90
22364;DHT22;11349;53.412;-1.328;2022-07-18T14:21:24;31.40;99.90
22364;DHT22;11349;53.412;-1.328;2022-07-18T14:23:50;31.50;99.90
22364;DHT22;11349;53.412;-1.328;2022-07-18T14:26:16;31.60;99.90
22364;DHT22;11349;53.412;-1.328;2022-07-18T14:28:42;31.70;99.90
22364;DHT22;11349;53.412;-1.328;2022-07-18T14:31:08;31.60;99.90
22364;DHT22;11349;53.412;-1.328;2022-07-18T14:33:34;31.60;99.90
22364;DHT22;11349;53.412;-1.328;2022-07-18T14:36:00;31.60;99.90
22364;DHT22;11349;53.412;-1.328;2022-07-18T14:38:26;31.50;99.90
22364;DHT22;11349;53.412;-1.328;2022-07-18T14:40:52;31.70;99.90
22364;DHT22;11349;53.412;-1.328;2022-07-18T14:43:19;31.70;99.90
22364;DHT22;11349;53.412;-1.328;2022-07-18T14:45:44;31.80;99.90
22364;DHT22;11349;53.412;-1.328;2022-07-18T14:48:10;31.80;99.90
22364;DHT22;11349;53.412;-1.328;2022-07-18T14:50:36;31.90;99.90
22364;DHT22;11349;53.412;-1.328;2022-07-18T14:53:02;31.90;99.90
22364;DHT22;11349;53.412;-1.328;2022-07-18T14:55:28;31.80;99.90
22364;DHT22;11349;53.412;-1.328;2022-07-18T14:57:54;31.80;99.90
22364;DHT22;11349;53.412;-1.328;2022-07-18T15:00:20;32.20;99.90
22364;DHT22;11349;53.412;-1.328;2022-07-18T15:02:45;32.10;99.90
22364;DHT22;11349;53.412;-1.328;2022-07-18T15:05:11;31.90;99.90
22364;DHT22;11349;53.412;-1.328;2022-07-18T15:07:37;31.70;99.90
22364;DHT22;11349;53.412;-1.328;2022-07-18T15:10:04;31.70;99.90
22364;DHT22;11349;53.412;-1.328;2022-07-18T15:12:30;31.90;99.90
22364;DHT22;11349;53.412;-1.328;2022-07-18T15:14:57;31.80;99.90
22364;DHT22;11349;53.412;-1.328;2022-07-18T15:17:24;31.90;99.90
22364;DHT22;11349;53.412;-1.328;2022-07-18T15:19:50;32.10;99.90
22364;DHT22;11349;53.412;-1.328;2022-07-18T15:22:16;32.30;99.90
22364;DHT22;11349;53.412;-1.328;2022-07-18T15:24:42;32.40;99.90
22364;DHT22;11349;53.412;-1.328;2022-07-18T15:27:08;32.10;99.90
22364;DHT22;11349;53.412;-1.328;2022-07-18T15:29:34;32.20;99.90
22364;DHT22;11349;53.412;-1.328;2022-07-18T15:32:00;31.80;99.90
22364;DHT22;11349;53.412;-1.328;2022-07-18T15:34:28;32.30;99.90
22364;DHT22;11349;53.412;-1.328;2022-07-18T15:36:53;32.60;99.90
22364;DHT22;11349;53.412;-1.328;2022-07-18T15:39:19;32.70;99.90
22364;DHT22;11349;53.412;-1.328;2022-07-18T15:41:45;32.80;99.90
22364;DHT22;11349;53.412;-1.328;2022-07-18T15:44:11;32.40;99.90
22364;DHT22;11349;53.412;-1.328;2022-07-18T15:46:37;32.90;99.90
22364;DHT22;11349;53.412;-1.328;2022-07-18T15:49:06;32.30;99.90
22364;DHT22;11349;53.412;-1.328;2022-07-18T15:51:31;32.10;99.90
22364;DHT22;11349;53.412;-1.328;2022-07-18T15:53:57;32.10;99.90
22364;DHT22;11349;53.412;-1.328;2022-07-18T15:56:24;32.30;99.90
22364;DHT22;11349;53.412;-1.328;2022-07-18T15:58:50;32.20;99.90
22364;DHT22;11349;53.412;-1.328;2022-07-18T16:01:16;32.20;99.90
22364;DHT22;11349;53.412;-1.328;2022-07-18T16:03:42;31.80;99.90
22364;DHT22;11349;53.412;-1.328;2022-07-18T16:06:08;32.10;99.90